sensor_id;sensor_type;location;lat;lon;timestamp;pressure;altitude;pressure_sealevel;temperature;humidity
14269;BME280;7218;51.480;7.006;2023-12-28T00:00:40;76589.06;;;-143.00;81.11
14269;BME280;7218;51.480;7.006;2023-12-28T00:03:07;76591.06;;;-143.00;81.66
14269;BME280;7218;51.480;7.006;2023-12-28T00:05:32;76609.03;;;-143.00;82.29
14269;BME280;7218;51.480;7.006;2023-12-28T00:07:59;76597.06;;;-143.00;82.56
14269;BME280;7218;51.480;7.006;2023-12-28T00:10:26;76565.13;;;-143.00;82.47
14269;BME280;7218;51.480;7.006;2023-12-28T00:12:53;76625.00;;;-143.00;83.98
14269;BME280;7218;51.480;7.006;2023-12-28T00:15:20;76577.09;;;-143.00;82.84
14269;BME280;7218;51.480;7.006;2023-12-28T00:17:48;76553.13;;;-143.00;82.05
14269;BME280;7218;51.480;7.006;2023-12-28T00:20:14;76551.13;;;-143.00;82.55
14269;BME280;7218;51.480;7.006;2023-12-28T00:22:41;76527.19;;;-143.00;81.46
14269;BME280;7218;51.480;7.006;2023-12-28T00:25:08;76563.13;;;-143.00;81.97
14269;BME280;7218;51.480;7.006;2023-12-28T00:27:34;76513.22;;;-143.00;80.88
14269;BME280;7218;51.480;7.006;2023-12-28T00:30:03;76493.25;;;-143.00;80.62
14269;BME280;7218;51.480;7.006;2023-12-28T00:32:30;76493.25;;;-143.00;80.07
14269;BME280;7218;51.480;7.006;2023-12-28T00:34:58;76541.16;;;-143.00;81.43
14269;BME280;7218;51.480;7.006;2023-12-28T00:37:24;76537.16;;;-143.00;80.79
14269;BME280;7218;51.480;7.006;2023-12-28T00:39:51;76517.19;;;-143.00;80.43
14269;BME280;7218;51.480;7.006;2023-12-28T00:42:17;76471.28;;;-143.00;79.05
14269;BME280;7218;51.480;7.006;2023-12-28T00:44:44;76505.22;;;-143.00;79.14
14269;BME280;7218;51.480;7.006;2023-12-28T00:47:11;76509.22;;;-143.00;78.99
14269;BME280;7218;51.480;7.006;2023-12-28T00:49:37;76467.28;;;-143.00;78.35
14269;BME280;7218;51.480;7.006;2023-12-28T00:52:05;76425.34;;;-143.00;77.67
14269;BME280;7218;51.480;7.006;2023-12-28T00:54:32;76507.22;;;-143.00;78.67
14269;BME280;7218;51.480;7.006;2023-12-28T00:56:58;76479.25;;;-143.00;77.93
14269;BME280;7218;51.480;7.006;2023-12-28T00:59:24;76513.22;;;-143.00;78.66
14269;BME280;7218;51.480;7.006;2023-12-28T01:01:51;76505.22;;;-143.00;77.81
14269;BME280;7218;51.480;7.006;2023-12-28T01:04:17;76453.31;;;-143.00;76.15
14269;BME280;7218;51.480;7.006;2023-12-28T01:06:44;76457.31;;;-143.00;75.88
14269;BME280;7218;51.480;7.006;2023-12-28T01:09:12;76485.25;;;-143.00;76.57
14269;BME280;7218;51.480;7.006;2023-12-28T01:11:38;76433.34;;;-143.00;74.99
14269;BME280;7218;51.480;7.006;2023-12-28T01:14:05;76503.22;;;-143.00;76.02
14269;BME280;7218;51.480;7.006;2023-12-28T01:16:31;76491.25;;;-143.00;76.27
14269;BME280;7218;51.480;7.006;2023-12-28T01:18:58;76489.25;;;-143.00;76.12
14269;BME280;7218;51.480;7.006;2023-12-28T01:21:24;76437.34;;;-143.00;74.63
14269;BME280;7218;51.480;7.006;2023-12-28T01:23:51;76489.25;;;-143.00;75.61
14269;BME280;7218;51.480;7.006;2023-12-28T01:26:19;76461.28;;;-143.00;75.13
14269;BME280;7218;51.480;7.006;2023-12-28T01:28:45;76517.19;;;-143.00;76.27
14269;BME280;7218;51.480;7.006;2023-12-28T01:31:12;76505.22;;;-143.00;75.87
14269;BME280;7218;51.480;7.006;2023-12-28T01:33:38;76445.31;;;-143.00;74.74
14269;BME280;7218;51.480;7.006;2023-12-28T01:36:16;76429.34;;;-143.00;74.46
14269;BME280;7218;51.480;7.006;2023-12-28T01:38:42;76483.25;;;-143.00;75.66
14269;BME280;7218;51.480;7.006;2023-12-28T01:41:08;76421.38;;;-143.00;74.25
14269;BME280;7218;51.480;7.006;2023-12-28T01:43:36;76429.34;;;-143.00;74.76
14269;BME280;7218;51.480;7.006;2023-12-28T01:46:04;76471.28;;;-143.00;75.72
14269;BME280;7218;51.480;7.006;2023-12-28T01:48:30;76471.28;;;-143.00;75.73
14269;BME280;7218;51.480;7.006;2023-12-28T01:50:58;76461.28;;;-143.00;75.48
14269;BME280;7218;51.480;7.006;2023-12-28T01:53:25;76497.22;;;-143.00;75.56
14269;BME280;7218;51.480;7.006;2023-12-28T01:55:51;76457.31;;;-143.00;75.04
14269;BME280;7218;51.480;7.006;2023-12-28T01:58:18;76457.31;;;-143.00;74.65
14269;BME280;7218;51.480;7.006;2023-12-28T02:00:46;76441.31;;;-143.00;74.99
14269;BME280;7218;51.480;7.006;2023-12-28T02:03:13;76435.34;;;-143.00;73.64
14269;BME280;7218;51.480;7.006;2023-12-28T02:05:39;76443.31;;;-143.00;73.98
14269;BME280;7218;51.480;7.006;2023-12-28T02:08:06;76453.31;;;-143.00;74.79
14269;BME280;7218;51.480;7.006;2023-12-28T02:10:32;76477.28;;;-143.00;75.15
14269;BME280;7218;51.480;7.006;2023-12-28T02:12:59;76451.31;;;-143.00;74.83
14269;BME280;7218;51.480;7.006;2023-12-28T02:15:25;76435.34;;;-143.00;74.28
14269;BME280;7218;51.480;7.006;2023-12-28T02:17:58;76457.31;;;-143.00;74.99
14269;BME280;7218;51.480;7.006;2023-12-28T02:20:28;76449.31;;;-143.00;75.58
14269;BME280;7218;51.480;7.006;2023-12-28T02:22:55;76469.28;;;-143.00;75.71
14269;BME280;7218;51.480;7.006;2023-12-28T02:25:23;76397.41;;;-143.00;73.92
14269;BME280;7218;51.480;7.006;2023-12-28T02:27:50;76525.19;;;-143.00;77.12
14269;BME280;7218;51.480;7.006;2023-12-28T02:30:17;76471.28;;;-143.00;75.66
14269;BME280;7218;51.480;7.006;2023-12-28T02:32:52;76441.31;;;-143.00;75.14
14269;BME280;7218;51.480;7.006;2023-12-28T02:35:24;76433.34;;;-143.00;75.04
14269;BME280;7218;51.480;7.006;2023-12-28T02:37:54;76447.31;;;-143.00;75.41
14269;BME280;7218;51.480;7.006;2023-12-28T02:40:23;76477.28;;;-143.00;76.23
14269;BME280;7218;51.480;7.006;2023-12-28T02:42:51;76493.25;;;-143.00;76.47
14269;BME280;7218;51.480;7.006;2023-12-28T02:45:18;76447.31;;;-143.00;75.14
14269;BME280;7218;51.480;7.006;2023-12-28T02:47:44;76437.34;;;-143.00;74.66
14269;BME280;7218;51.480;7.006;2023-12-28T02:50:11;76491.25;;;-143.00;76.12
14269;BME280;7218;51.480;7.006;2023-12-28T02:52:37;76483.25;;;-143.00;76.57
14269;BME280;7218;51.480;7.006;2023-12-28T02:55:05;76421.38;;;-143.00;75.09
14269;BME280;7218;51.480;7.006;2023-12-28T02:57:33;76449.31;;;-143.00;75.42
14269;BME280;7218;51.480;7.006;2023-12-28T03:00:04;76453.31;;;-143.00;75.95
14269;BME280;7218;51.480;7.006;2023-12-28T03:02:31;76457.31;;;-143.00;75.85
14269;BME280;7218;51.480;7.006;2023-12-28T03:04:57;76457.31;;;-143.00;75.58
14269;BME280;7218;51.480;7.006;2023-12-28T03:07:24;76453.31;;;-143.00;75.67
14269;BME280;7218;51.480;7.006;2023-12-28T03:09:50;76451.31;;;-143.00;75.82
14269;BME280;7218;51.480;7.006;2023-12-28T03:12:17;76471.28;;;-143.00;75.95
14269;BME280;7218;51.480;7.006;2023-12-28T03:14:44;76429.34;;;-143.00;75.12
14269;BME280;7218;51.480;7.006;2023-12-28T03:17:11;76479.25;;;-143.00;76.12
14269;BME280;7218;51.480;7.006;2023-12-28T03:19:38;76441.31;;;-143.00;75.53
14269;BME280;7218;51.480;7.006;2023-12-28T03:22:04;76461.28;;;-143.00;75.78
14269;BME280;7218;51.480;7.006;2023-12-28T03:24:30;76445.31;;;-143.00;75.41
14269;BME280;7218;51.480;7.006;2023-12-28T03:26:57;76467.28;;;-143.00;76.02
14269;BME280;7218;51.480;7.006;2023-12-28T03:29:24;76447.31;;;-143.00;75.57
14269;BME280;7218;51.480;7.006;2023-12-28T03:31:52;76443.31;;;-143.00;76.33
14269;BME280;7218;51.480;7.006;2023-12-28T03:34:18;76447.31;;;-143.00;75.85
14269;BME280;7218;51.480;7.006;2023-12-28T03:36:44;76455.31;;;-143.00;75.99
14269;BME280;7218;51.480;7.006;2023-12-28T03:39:11;76481.25;;;-143.00;76.64
14269;BME280;7218;51.480;7.006;2023-12-28T03:41:37;76459.31;;;-143.00;75.95
14269;BME280;7218;51.480;7.006;2023-12-28T03:44:04;76431.34;;;-143.00;75.48
14269;BME280;7218;51.480;7.006;2023-12-28T03:46:30;76421.38;;;-143.00;74.91
14269;BME280;7218;51.480;7.006;2023-12-28T03:48:58;76417.38;;;-143.00;75.50
14269;BME280;7218;51.480;7.006;2023-12-28T03:51:25;76453.31;;;-143.00;76.34
14269;BME280;7218;51.480;7.006;2023-12-28T03:53:51;76417.38;;;-143.00;74.94
14269;BME280;7218;51.480;7.006;2023-12-28T03:56:20;76405.41;;;-143.00;74.87
14269;BME280;7218;51.480;7.006;2023-12-28T03:58:46;76417.38;;;-143.00;74.87
14269;BME280;7218;51.480;7.006;2023-12-28T04:01:12;76429.34;;;-143.00;75.05
14269;BME280;7218;51.480;7.006;2023-12-28T04:03:39;76485.25;;;-143.00;76.02
14269;BME280;7218;51.480;7.006;2023-12-28T04:06:07;76453.31;;;-143.00;76.28
14269;BME280;7218;51.480;7.006;2023-12-28T04:08:33;76391.41;;;-143.00;74.62
14269;BME280;7218;51.480;7.006;2023-12-28T04:11:00;76425.34;;;-143.00;74.95
14269;BME280;7218;51.480;7.006;2023-12-28T04:13:26;76429.34;;;-143.00;75.14
14269;BME280;7218;51.480;7.006;2023-12-28T04:15:53;76473.28;;;-143.00;75.73
14269;BME280;7218;51.480;7.006;2023-12-28T04:18:19;76463.28;;;-143.00;76.22
14269;BME280;7218;51.480;7.006;2023-12-28T04:20:46;76399.41;;;-143.00;74.15
14269;BME280;7218;51.480;7.006;2023-12-28T04:23:13;76413.38;;;-143.00;75.42
14269;BME280;7218;51.480;7.006;2023-12-28T04:25:40;76473.28;;;-143.00;76.04
14269;BME280;7218;51.480;7.006;2023-12-28T04:28:07;76437.34;;;-143.00;75.93
14269;BME280;7218;51.480;7.006;2023-12-28T04:30:33;76449.31;;;-143.00;75.68
14269;BME280;7218;51.480;7.006;2023-12-28T04:33:00;76405.41;;;-143.00;74.55
14269;BME280;7218;51.480;7.006;2023-12-28T04:35:27;76389.41;;;-143.00;73.69
14269;BME280;7218;51.480;7.006;2023-12-28T04:37:55;76429.34;;;-143.00;75.11
14269;BME280;7218;51.480;7.006;2023-12-28T04:40:23;76403.41;;;-143.00;74.36
14269;BME280;7218;51.480;7.006;2023-12-28T04:42:49;76435.34;;;-143.00;74.99
14269;BME280;7218;51.480;7.006;2023-12-28T04:45:16;76427.34;;;-143.00;74.85
14269;BME280;7218;51.480;7.006;2023-12-28T04:47:42;76473.28;;;-143.00;75.56
14269;BME280;7218;51.480;7.006;2023-12-28T04:50:09;76421.38;;;-143.00;73.71
14269;BME280;7218;51.480;7.006;2023-12-28T04:52:35;76433.34;;;-143.00;74.33
14269;BME280;7218;51.480;7.006;2023-12-28T04:55:02;76431.34;;;-143.00;74.43
14269;BME280;7218;51.480;7.006;2023-12-28T04:57:30;76431.34;;;-143.00;74.95
14269;BME280;7218;51.480;7.006;2023-12-28T04:59:56;76425.34;;;-143.00;74.64
14269;BME280;7218;51.480;7.006;2023-12-28T05:02:23;76411.38;;;-143.00;73.45
14269;BME280;7218;51.480;7.006;2023-12-28T05:04:49;76421.38;;;-143.00;73.68
14269;BME280;7218;51.480;7.006;2023-12-28T05:07:16;76413.38;;;-143.00;73.78
14269;BME280;7218;51.480;7.006;2023-12-28T05:09:42;76401.41;;;-143.00;73.27
14269;BME280;7218;51.480;7.006;2023-12-28T05:12:09;76445.31;;;-143.00;74.23
14269;BME280;7218;51.480;7.006;2023-12-28T05:14:37;76425.34;;;-143.00;74.16
14269;BME280;7218;51.480;7.006;2023-12-28T05:17:03;76457.31;;;-143.00;73.94
14269;BME280;7218;51.480;7.006;2023-12-28T05:19:30;76469.28;;;-143.00;74.36
14269;BME280;7218;51.480;7.006;2023-12-28T05:21:56;76435.34;;;-143.00;73.17
14269;BME280;7218;51.480;7.006;2023-12-28T05:24:23;76407.38;;;-143.00;72.41
14269;BME280;7218;51.480;7.006;2023-12-28T05:26:49;76427.34;;;-143.00;71.99
14269;BME280;7218;51.480;7.006;2023-12-28T05:29:16;76397.41;;;-143.00;71.30
14269;BME280;7218;51.480;7.006;2023-12-28T05:31:44;76389.41;;;-143.00;71.54
14269;BME280;7218;51.480;7.006;2023-12-28T05:34:10;76441.31;;;-143.00;72.94
14269;BME280;7218;51.480;7.006;2023-12-28T05:36:36;76453.31;;;-143.00;72.73
14269;BME280;7218;51.480;7.006;2023-12-28T05:39:03;76405.41;;;-143.00;71.31
14269;BME280;7218;51.480;7.006;2023-12-28T05:41:30;76397.41;;;-143.00;70.80
14269;BME280;7218;51.480;7.006;2023-12-28T05:43:56;76399.41;;;-143.00;71.00
14269;BME280;7218;51.480;7.006;2023-12-28T05:46:23;76437.34;;;-143.00;71.68
14269;BME280;7218;51.480;7.006;2023-12-28T05:48:50;76417.38;;;-143.00;71.04
14269;BME280;7218;51.480;7.006;2023-12-28T05:51:17;76429.34;;;-143.00;71.44
14269;BME280;7218;51.480;7.006;2023-12-28T05:53:44;76439.34;;;-143.00;71.64
14269;BME280;7218;51.480;7.006;2023-12-28T05:56:11;76461.28;;;-143.00;72.39
14269;BME280;7218;51.480;7.006;2023-12-28T05:58:37;76437.34;;;-143.00;71.27
14269;BME280;7218;51.480;7.006;2023-12-28T06:01:04;76419.38;;;-143.00;70.80
14269;BME280;7218;51.480;7.006;2023-12-28T06:03:30;76405.41;;;-143.00;70.11
14269;BME280;7218;51.480;7.006;2023-12-28T06:05:58;76409.38;;;-143.00;71.15
14269;BME280;7218;51.480;7.006;2023-12-28T06:08:25;76441.31;;;-143.00;71.29
14269;BME280;7218;51.480;7.006;2023-12-28T06:10:51;76451.31;;;-143.00;71.05
14269;BME280;7218;51.480;7.006;2023-12-28T06:13:18;76497.22;;;-143.00;72.13
14269;BME280;7218;51.480;7.006;2023-12-28T06:15:44;76483.25;;;-143.00;71.62
14269;BME280;7218;51.480;7.006;2023-12-28T06:18:11;76431.34;;;-143.00;70.33
14269;BME280;7218;51.480;7.006;2023-12-28T06:20:37;76499.22;;;-143.00;71.91
14269;BME280;7218;51.480;7.006;2023-12-28T06:23:06;76395.41;;;-143.00;70.65
14269;BME280;7218;51.480;7.006;2023-12-28T06:25:33;76419.38;;;-143.00;70.68
14269;BME280;7218;51.480;7.006;2023-12-28T06:27:59;76449.31;;;-143.00;70.53
14269;BME280;7218;51.480;7.006;2023-12-28T06:30:26;76431.34;;;-143.00;70.31
14269;BME280;7218;51.480;7.006;2023-12-28T06:32:52;76453.31;;;-143.00;70.60
14269;BME280;7218;51.480;7.006;2023-12-28T06:35:20;76473.28;;;-143.00;70.68
14269;BME280;7218;51.480;7.006;2023-12-28T06:37:46;76403.41;;;-143.00;68.59
14269;BME280;7218;51.480;7.006;2023-12-28T06:40:14;76441.31;;;-143.00;70.08
14269;BME280;7218;51.480;7.006;2023-12-28T06:42:41;76417.38;;;-143.00;69.17
14269;BME280;7218;51.480;7.006;2023-12-28T06:45:09;76443.31;;;-143.00;69.96
14269;BME280;7218;51.480;7.006;2023-12-28T06:47:35;76435.34;;;-143.00;69.10
14269;BME280;7218;51.480;7.006;2023-12-28T06:50:02;76443.31;;;-143.00;69.57
14269;BME280;7218;51.480;7.006;2023-12-28T06:52:29;76455.31;;;-143.00;70.06
14269;BME280;7218;51.480;7.006;2023-12-28T06:54:56;76471.28;;;-143.00;69.99
14269;BME280;7218;51.480;7.006;2023-12-28T06:57:24;76401.41;;;-143.00;69.01
14269;BME280;7218;51.480;7.006;2023-12-28T06:59:51;76413.38;;;-143.00;68.87
14269;BME280;7218;51.480;7.006;2023-12-28T07:02:17;76413.38;;;-143.00;68.65
14269;BME280;7218;51.480;7.006;2023-12-28T07:04:44;76461.28;;;-143.00;69.54
14269;BME280;7218;51.480;7.006;2023-12-28T07:07:10;76437.34;;;-143.00;69.21
14269;BME280;7218;51.480;7.006;2023-12-28T07:09:37;76481.25;;;-143.00;69.36
14269;BME280;7218;51.480;7.006;2023-12-28T07:12:04;76449.31;;;-143.00;69.76
14269;BME280;7218;51.480;7.006;2023-12-28T07:14:32;76477.28;;;-143.00;70.12
14269;BME280;7218;51.480;7.006;2023-12-28T07:17:01;76479.25;;;-143.00;70.40
14269;BME280;7218;51.480;7.006;2023-12-28T07:19:27;76447.31;;;-143.00;69.44
14269;BME280;7218;51.480;7.006;2023-12-28T07:21:54;76485.25;;;-143.00;70.20
14269;BME280;7218;51.480;7.006;2023-12-28T07:24:20;76485.25;;;-143.00;70.26
14269;BME280;7218;51.480;7.006;2023-12-28T07:26:47;76459.31;;;-143.00;69.79
14269;BME280;7218;51.480;7.006;2023-12-28T07:29:13;76449.31;;;-143.00;69.52
14269;BME280;7218;51.480;7.006;2023-12-28T07:31:41;76429.34;;;-143.00;69.22
14269;BME280;7218;51.480;7.006;2023-12-28T07:34:07;76457.31;;;-143.00;69.44
14269;BME280;7218;51.480;7.006;2023-12-28T07:36:34;76525.19;;;-143.00;69.69
14269;BME280;7218;51.480;7.006;2023-12-28T07:39:00;76501.22;;;-143.00;69.62
14269;BME280;7218;51.480;7.006;2023-12-28T07:41:27;76471.28;;;-143.00;69.22
14269;BME280;7218;51.480;7.006;2023-12-28T07:43:53;76441.31;;;-143.00;68.63
14269;BME280;7218;51.480;7.006;2023-12-28T07:46:20;76497.22;;;-143.00;69.69
14269;BME280;7218;51.480;7.006;2023-12-28T07:48:47;76431.34;;;-143.00;68.53
14269;BME280;7218;51.480;7.006;2023-12-28T07:51:14;76489.25;;;-143.00;69.23
14269;BME280;7218;51.480;7.006;2023-12-28T07:53:40;76479.25;;;-143.00;68.71
14269;BME280;7218;51.480;7.006;2023-12-28T07:56:07;76493.25;;;-143.00;68.39
14269;BME280;7218;51.480;7.006;2023-12-28T07:58:34;76481.25;;;-143.00;68.48
14269;BME280;7218;51.480;7.006;2023-12-28T08:01:02;76503.22;;;-143.00;69.37
14269;BME280;7218;51.480;7.006;2023-12-28T08:03:29;76493.25;;;-143.00;68.91
14269;BME280;7218;51.480;7.006;2023-12-28T08:05:57;76457.31;;;-143.00;68.46
14269;BME280;7218;51.480;7.006;2023-12-28T08:08:23;76505.22;;;-143.00;68.70
14269;BME280;7218;51.480;7.006;2023-12-28T08:10:50;76473.28;;;-143.00;67.25
14269;BME280;7218;51.480;7.006;2023-12-28T08:13:16;76491.25;;;-143.00;68.21
14269;BME280;7218;51.480;7.006;2023-12-28T08:15:43;76489.25;;;-143.00;68.38
14269;BME280;7218;51.480;7.006;2023-12-28T08:18:11;76447.31;;;-143.00;66.89
14269;BME280;7218;51.480;7.006;2023-12-28T08:20:38;76513.22;;;-143.00;68.37
14269;BME280;7218;51.480;7.006;2023-12-28T08:23:06;76449.31;;;-143.00;67.88
14269;BME280;7218;51.480;7.006;2023-12-28T08:25:32;76481.25;;;-143.00;67.69
14269;BME280;7218;51.480;7.006;2023-12-28T08:27:59;76505.22;;;-143.00;67.79
14269;BME280;7218;51.480;7.006;2023-12-28T08:30:25;76439.34;;;-143.00;66.42
14269;BME280;7218;51.480;7.006;2023-12-28T08:32:52;76479.25;;;-143.00;67.51
14269;BME280;7218;51.480;7.006;2023-12-28T08:35:19;76485.25;;;-143.00;67.34
14269;BME280;7218;51.480;7.006;2023-12-28T08:37:45;76493.25;;;-143.00;67.42
14269;BME280;7218;51.480;7.006;2023-12-28T08:40:15;76417.38;;;-143.00;66.35
14269;BME280;7218;51.480;7.006;2023-12-28T08:42:41;76493.25;;;-143.00;67.62
14269;BME280;7218;51.480;7.006;2023-12-28T08:45:08;76493.25;;;-143.00;67.24
14269;BME280;7218;51.480;7.006;2023-12-28T08:47:35;76489.25;;;-143.00;67.12
14269;BME280;7218;51.480;7.006;2023-12-28T08:50:02;76515.19;;;-143.00;67.56
14269;BME280;7218;51.480;7.006;2023-12-28T08:52:28;76517.19;;;-143.00;68.05
14269;BME280;7218;51.480;7.006;2023-12-28T08:54:55;76505.22;;;-143.00;67.81
14269;BME280;7218;51.480;7.006;2023-12-28T08:57:22;76519.19;;;-143.00;67.87
14269;BME280;7218;51.480;7.006;2023-12-28T08:59:49;76469.28;;;-143.00;67.15
14269;BME280;7218;51.480;7.006;2023-12-28T09:02:15;76523.19;;;-143.00;68.16
14269;BME280;7218;51.480;7.006;2023-12-28T09:04:42;76521.19;;;-143.00;68.35
14269;BME280;7218;51.480;7.006;2023-12-28T09:07:08;76449.31;;;-143.00;66.74
14269;BME280;7218;51.480;7.006;2023-12-28T09:09:35;76509.22;;;-143.00;68.00
14269;BME280;7218;51.480;7.006;2023-12-28T09:12:03;76483.25;;;-143.00;67.34
14269;BME280;7218;51.480;7.006;2023-12-28T09:14:30;76515.19;;;-143.00;67.94
14269;BME280;7218;51.480;7.006;2023-12-28T09:16:57;76541.16;;;-143.00;68.28
14269;BME280;7218;51.480;7.006;2023-12-28T09:19:24;76481.25;;;-143.00;67.20
14269;BME280;7218;51.480;7.006;2023-12-28T09:21:50;76509.22;;;-143.00;67.92
14269;BME280;7218;51.480;7.006;2023-12-28T09:24:17;76485.25;;;-143.00;67.19
14269;BME280;7218;51.480;7.006;2023-12-28T09:26:44;76489.25;;;-143.00;66.92
14269;BME280;7218;51.480;7.006;2023-12-28T09:29:11;76445.31;;;-143.00;66.40
14269;BME280;7218;51.480;7.006;2023-12-28T09:31:39;76441.31;;;-143.00;65.90
14269;BME280;7218;51.480;7.006;2023-12-28T09:34:06;76477.28;;;-143.00;66.86
14269;BME280;7218;51.480;7.006;2023-12-28T09:36:32;76453.31;;;-143.00;66.22
14269;BME280;7218;51.480;7.006;2023-12-28T09:38:59;76517.19;;;-143.00;67.29
14269;BME280;7218;51.480;7.006;2023-12-28T09:41:27;76457.31;;;-143.00;65.96
14269;BME280;7218;51.480;7.006;2023-12-28T09:44:09;76439.34;;;-143.00;66.05
14269;BME280;7218;51.480;7.006;2023-12-28T09:46:40;76469.28;;;-143.00;66.11
14269;BME280;7218;51.480;7.006;2023-12-28T09:49:07;76425.34;;;-143.00;65.19
14269;BME280;7218;51.480;7.006;2023-12-28T09:51:34;76463.28;;;-143.00;65.76
14269;BME280;7218;51.480;7.006;2023-12-28T09:54:02;76409.38;;;-143.00;65.18
14269;BME280;7218;51.480;7.006;2023-12-28T09:56:30;76437.34;;;-143.00;65.35
14269;BME280;7218;51.480;7.006;2023-12-28T09:58:58;76413.38;;;-143.00;64.78
14269;BME280;7218;51.480;7.006;2023-12-28T10:01:25;76451.31;;;-143.00;65.23
14269;BME280;7218;51.480;7.006;2023-12-28T10:03:53;76409.38;;;-143.00;64.76
14269;BME280;7218;51.480;7.006;2023-12-28T10:06:20;76463.28;;;-143.00;65.30
14269;BME280;7218;51.480;7.006;2023-12-28T10:08:46;76449.31;;;-143.00;65.01
14269;BME280;7218;51.480;7.006;2023-12-28T10:11:14;76457.31;;;-143.00;65.27
14269;BME280;7218;51.480;7.006;2023-12-28T10:13:41;76455.31;;;-143.00;65.13
14269;BME280;7218;51.480;7.006;2023-12-28T10:16:09;76457.31;;;-143.00;65.94
14269;BME280;7218;51.480;7.006;2023-12-28T10:18:36;76481.25;;;-143.00;66.13
14269;BME280;7218;51.480;7.006;2023-12-28T10:21:05;76455.31;;;-143.00;65.68
14269;BME280;7218;51.480;7.006;2023-12-28T10:23:32;76467.28;;;-143.00;65.48
14269;BME280;7218;51.480;7.006;2023-12-28T10:25:59;76477.28;;;-143.00;65.18
14269;BME280;7218;51.480;7.006;2023-12-28T10:28:26;76445.31;;;-143.00;64.73
14269;BME280;7218;51.480;7.006;2023-12-28T10:30:54;76445.31;;;-143.00;64.54
14269;BME280;7218;51.480;7.006;2023-12-28T10:33:21;76471.28;;;-143.00;65.00
14269;BME280;7218;51.480;7.006;2023-12-28T10:35:50;76401.41;;;-143.00;63.88
14269;BME280;7218;51.480;7.006;2023-12-28T10:38:19;76449.31;;;-143.00;64.91
14269;BME280;7218;51.480;7.006;2023-12-28T10:40:46;76439.34;;;-143.00;64.75
14269;BME280;7218;51.480;7.006;2023-12-28T10:43:16;76403.41;;;-143.00;63.80
14269;BME280;7218;51.480;7.006;2023-12-28T10:45:46;76429.34;;;-143.00;64.59
14269;BME280;7218;51.480;7.006;2023-12-28T10:48:13;76441.31;;;-143.00;64.38
14269;BME280;7218;51.480;7.006;2023-12-28T10:50:41;76437.34;;;-143.00;65.28
14269;BME280;7218;51.480;7.006;2023-12-28T10:53:19;76399.41;;;-143.00;63.91
14269;BME280;7218;51.480;7.006;2023-12-28T10:55:51;76455.31;;;-143.00;65.70
14269;BME280;7218;51.480;7.006;2023-12-28T10:58:24;76413.38;;;-143.00;64.48
14269;BME280;7218;51.480;7.006;2023-12-28T11:00:59;76401.41;;;-143.00;64.33
14269;BME280;7218;51.480;7.006;2023-12-28T11:03:34;76353.47;;;-143.00;63.27
14269;BME280;7218;51.480;7.006;2023-12-28T11:06:02;76365.47;;;-143.00;63.46
14269;BME280;7218;51.480;7.006;2023-12-28T11:08:32;76427.34;;;-143.00;64.38
14269;BME280;7218;51.480;7.006;2023-12-28T11:10:59;76413.38;;;-143.00;64.44
14269;BME280;7218;51.480;7.006;2023-12-28T11:13:27;76441.31;;;-143.00;64.45
14269;BME280;7218;51.480;7.006;2023-12-28T11:15:55;76417.38;;;-143.00;63.95
14269;BME280;7218;51.480;7.006;2023-12-28T11:18:30;76439.34;;;-143.00;64.43
14269;BME280;7218;51.480;7.006;2023-12-28T11:20:57;76397.41;;;-143.00;63.31
14269;BME280;7218;51.480;7.006;2023-12-28T11:23:24;76367.47;;;-143.00;62.89
14269;BME280;7218;51.480;7.006;2023-12-28T11:25:51;76417.38;;;-143.00;63.59
14269;BME280;7218;51.480;7.006;2023-12-28T11:28:18;76361.47;;;-143.00;62.20
14269;BME280;7218;51.480;7.006;2023-12-28T11:30:46;76397.41;;;-143.00;62.66
14269;BME280;7218;51.480;7.006;2023-12-28T11:33:12;76395.41;;;-143.00;63.21
14269;BME280;7218;51.480;7.006;2023-12-28T11:35:40;76365.47;;;-143.00;63.02
14269;BME280;7218;51.480;7.006;2023-12-28T11:38:09;76341.50;;;-143.00;62.42
14269;BME280;7218;51.480;7.006;2023-12-28T11:40:40;76329.53;;;-143.00;61.29
14269;BME280;7218;51.480;7.006;2023-12-28T11:43:15;76365.47;;;-143.00;62.61
14269;BME280;7218;51.480;7.006;2023-12-28T11:45:47;76371.44;;;-143.00;62.33
14269;BME280;7218;51.480;7.006;2023-12-28T11:48:22;76371.44;;;-143.00;63.35
14269;BME280;7218;51.480;7.006;2023-12-28T11:50:50;76315.56;;;-143.00;62.02
14269;BME280;7218;51.480;7.006;2023-12-28T11:53:18;76339.50;;;-143.00;62.58
14269;BME280;7218;51.480;7.006;2023-12-28T11:55:44;76363.47;;;-143.00;62.68
14269;BME280;7218;51.480;7.006;2023-12-28T11:58:11;76397.41;;;-143.00;62.79
14269;BME280;7218;51.480;7.006;2023-12-28T12:00:39;76319.53;;;-143.00;61.96
14269;BME280;7218;51.480;7.006;2023-12-28T12:03:09;76353.47;;;-143.00;62.53
14269;BME280;7218;51.480;7.006;2023-12-28T12:05:36;76351.50;;;-143.00;62.43
14269;BME280;7218;51.480;7.006;2023-12-28T12:08:05;76325.53;;;-143.00;61.62
14269;BME280;7218;51.480;7.006;2023-12-28T12:10:33;76339.50;;;-143.00;62.25
14269;BME280;7218;51.480;7.006;2023-12-28T12:13:00;76269.63;;;-143.00;60.65
14269;BME280;7218;51.480;7.006;2023-12-28T12:15:28;76247.66;;;-143.00;59.86
14269;BME280;7218;51.480;7.006;2023-12-28T12:17:55;76291.59;;;-143.00;60.92
14269;BME280;7218;51.480;7.006;2023-12-28T12:20:22;76271.63;;;-143.00;60.56
14269;BME280;7218;51.480;7.006;2023-12-28T12:22:49;76329.53;;;-143.00;61.60
14269;BME280;7218;51.480;7.006;2023-12-28T12:25:17;76319.53;;;-143.00;60.74
14269;BME280;7218;51.480;7.006;2023-12-28T12:27:45;76229.72;;;-143.00;59.33
14269;BME280;7218;51.480;7.006;2023-12-28T12:30:11;76213.72;;;-143.00;58.32
14269;BME280;7218;51.480;7.006;2023-12-28T12:32:38;76241.69;;;-143.00;58.85
14269;BME280;7218;51.480;7.006;2023-12-28T12:35:09;76229.72;;;-143.00;58.57
14269;BME280;7218;51.480;7.006;2023-12-28T12:37:36;76243.69;;;-143.00;59.16
14269;BME280;7218;51.480;7.006;2023-12-28T12:40:04;76245.69;;;-143.00;59.04
14269;BME280;7218;51.480;7.006;2023-12-28T12:42:32;76165.81;;;-143.00;57.60
14269;BME280;7218;51.480;7.006;2023-12-28T12:44:59;76185.78;;;-143.00;57.50
14269;BME280;7218;51.480;7.006;2023-12-28T12:47:25;76189.78;;;-143.00;57.48
14269;BME280;7218;51.480;7.006;2023-12-28T12:49:52;76169.81;;;-143.00;56.10